Time;durP1;ratioP1;P1;durP2;ratioP2;P2;SDS_P1;SDS_P2;PMS_P1;PMS_P2;Temp;Humidity;BMP_temperature;BMP_pressure;BME280_temperature;BME280_humidity;BME280_pressure;Samples;Min_cycle;Max_cycle;Signal;HPM_P1;HPM_P2
2022/10/17 00:01:00;;;;;;;6.65;5.20;;;17.30;99.90;;;;;;5011659;28;20030;-51
2022/10/17 00:03:46;;;;;;;5.65;4.70;;;17.20;99.90;;;;;;5011631;28;20025;-55
2022/10/17 00:06:32;;;;;;;6.75;5.20;;;17.20;99.90;;;;;;5011775;28;20038;-52
2022/10/17 00:09:18;;;;;;;6.95;5.10;;;17.20;99.90;;;;;;4998357;28;20486;-55
2022/10/17 00:12:04;;;;;;;6.80;5.40;;;17.20;99.90;;;;;;5011378;28;20045;-54
2022/10/17 00:14:50;;;;;;;7.28;5.65;;;17.10;99.90;;;;;;5012032;28;20022;-52
2022/10/17 00:17:37;;;;;;;8.73;5.47;;;17.10;99.90;;;;;;5011835;28;20510;-55
2022/10/17 00:20:23;;;;;;;5.50;5.00;;;17.10;99.90;;;;;;5011332;28;20506;-54
2022/10/17 00:23:09;;;;;;;6.65;5.30;;;17.10;99.90;;;;;;4992328;28;20069;-51
2022/10/17 00:26:04;;;;;;;8.75;5.22;;;17.20;99.90;;;;;;4993200;28;20034;-54
2022/10/17 00:28:51;;;;;;;7.10;5.25;;;17.20;99.90;;;;;;4994924;28;20033;-49
2022/10/17 00:31:37;;;;;;;8.90;5.68;;;17.20;99.90;;;;;;5010491;28;20398;-51
2022/10/17 00:34:24;;;;;;;7.35;5.20;;;17.20;99.90;;;;;;4991861;28;20035;-53
2022/10/17 00:37:10;;;;;;;6.47;5.03;;;17.20;99.90;;;;;;4993410;28;20022;-49
2022/10/17 00:39:56;;;;;;;8.77;5.30;;;17.20;99.90;;;;;;5011668;28;20490;-48
2022/10/17 00:42:42;;;;;;;6.30;5.35;;;17.10;99.90;;;;;;4992405;28;20362;-51
2022/10/17 00:45:30;;;;;;;5.85;5.20;;;17.20;99.90;;;;;;4993279;28;20045;-48
2022/10/17 00:48:16;;;;;;;8.95;5.30;;;17.10;99.90;;;;;;5002409;28;20040;-56
2022/10/17 00:51:02;;;;;;;9.77;5.53;;;17.10;99.90;;;;;;5026392;28;20034;-53
2022/10/17 00:53:50;;;;;;;7.57;5.00;;;17.00;99.90;;;;;;5026700;28;20045;-57
2022/10/17 00:56:37;;;;;;;8.55;6.10;;;17.00;99.90;;;;;;5019507;28;20026;-54
2022/10/17 00:59:24;;;;;;;7.35;5.40;;;17.10;99.90;;;;;;5025434;28;20040;-55
2022/10/17 01:02:15;;;;;;;9.07;5.55;;;17.10;99.90;;;;;;5019807;28;20032;-54
2022/10/17 01:05:02;;;;;;;6.68;5.28;;;17.10;99.90;;;;;;5015549;28;20022;-53
2022/10/17 01:07:51;;;;;;;6.40;5.50;;;17.10;99.90;;;;;;5017482;28;20061;-57
2022/10/17 01:10:55;;;;;;;7.47;5.70;;;17.20;99.90;;;;;;5011278;28;20089;-55
2022/10/17 01:13:59;;;;;;;11.88;8.77;;;17.20;99.90;;;;;;4997117;28;20061;-54
2022/10/17 01:17:06;;;;;;;7.90;6.22;;;17.20;99.90;;;;;;4991690;28;20037;-51
2022/10/17 01:20:24;;;;;;;5.95;5.35;;;17.20;99.90;;;;;;5003894;28;20578;-54
2022/10/17 01:23:34;;;;;;;6.75;5.75;;;17.20;99.90;;;;;;5010462;28;20037;-57
2022/10/17 01:26:57;;;;;;;7.65;5.55;;;17.20;99.90;;;;;;4991290;28;20033;-56
2022/10/17 01:29:58;;;;;;;7.40;6.28;;;17.20;99.90;;;;;;5003621;28;20037;-54
2022/10/17 01:32:47;;;;;;;16.83;12.30;;;17.10;99.90;;;;;;5015630;28;20026;-53
2022/10/17 01:35:46;;;;;;;11.73;8.40;;;17.10;99.90;;;;;;5014351;28;20061;-53
2022/10/17 01:38:49;;;;;;;7.57;6.40;;;17.00;99.90;;;;;;5012734;28;20034;-50
2022/10/17 01:41:43;;;;;;;7.80;6.40;;;17.00;99.90;;;;;;5013117;28;20040;-56
2022/10/17 01:44:40;;;;;;;12.68;11.13;;;16.90;99.90;;;;;;5011154;28;20037;-53
2022/10/17 01:47:29;;;;;;;9.85;7.68;;;17.00;99.90;;;;;;5000996;28;20026;-49
2022/10/17 01:50:23;;;;;;;7.20;5.82;;;17.00;99.90;;;;;;5014826;28;20042;-57
2022/10/17 01:53:39;;;;;;;8.27;5.95;;;17.00;99.90;;;;;;5015086;28;20457;-49
2022/10/17 01:56:27;;;;;;;;;;;17.00;99.90;;;;;;5014969;28;20034;-54
2022/10/17 01:59:21;;;;;;;10.95;5.78;;;17.00;99.90;;;;;;4994475;28;19917;-52
2022/10/17 02:02:09;;;;;;;9.45;6.32;;;17.10;99.90;;;;;;4998426;28;20033;-55
2022/10/17 02:04:56;;;;;;;7.15;5.90;;;17.10;99.90;;;;;;5015179;28;20044;-49
2022/10/17 02:07:42;;;;;;;9.05;5.90;;;17.00;99.90;;;;;;4999265;28;20053;-50
2022/10/17 02:10:46;;;;;;;8.75;6.13;;;17.00;99.90;;;;;;4998654;28;20034;-56
2022/10/17 02:13:56;;;;;;;7.35;5.63;;;17.10;99.90;;;;;;5013947;28;20514;-55
2022/10/17 02:17:04;;;;;;;8.80;5.47;;;17.10;99.90;;;;;;4999773;28;20049;-50
2022/10/17 02:20:02;;;;;;;7.60;5.75;;;17.20;99.90;;;;;;5022509;28;20032;-57
2022/10/17 02:23:06;;;;;;;7.60;5.95;;;17.20;99.90;;;;;;5025924;28;20033;-55
2022/10/17 02:26:30;;;;;;;8.63;5.80;;;17.20;99.90;;;;;;5026082;28;20490;-59
2022/10/17 02:29:19;;;;;;;7.30;5.22;;;17.10;99.90;;;;;;5028091;28;20034;-59
2022/10/17 02:32:10;;;;;;;7.35;5.53;;;17.20;99.90;;;;;;5024274;28;20049;-49
2022/10/17 02:34:59;;;;;;;7.50;6.15;;;17.20;99.90;;;;;;5023760;28;20025;-51
2022/10/17 02:37:46;;;;;;;6.15;5.30;;;17.20;99.90;;;;;;5014647;28;20056;-52
2022/10/17 02:40:34;;;;;;;10.10;6.55;;;17.20;99.90;;;;;;5005196;28;20034;-49
2022/10/17 02:43:21;;;;;;;7.47;5.38;;;17.10;99.90;;;;;;5013202;28;20112;-52
2022/10/17 02:46:07;;;;;;;7.57;5.68;;;17.10;99.90;;;;;;5013658;28;20037;-52
2022/10/17 02:49:07;;;;;;;7.00;6.07;;;17.10;99.90;;;;;;5012466;28;20084;-52
2022/10/17 02:52:19;;;;;;;7.35;5.90;;;17.10;99.90;;;;;;5012035;28;20034;-52
2022/10/17 02:55:15;;;;;;;8.80;5.80;;;17.20;99.90;;;;;;5013445;28;20026;-51
2022/10/17 02:58:14;;;;;;;5.97;5.32;;;17.10;99.90;;;;;;5013209;28;20100;-55
2022/10/17 03:01:00;;;;;;;8.48;5.32;;;17.20;99.90;;;;;;5013363;28;20026;-50
2022/10/17 03:03:47;;;;;;;7.57;5.50;;;17.10;99.90;;;;;;5011203;28;20037;-48
2022/10/17 03:06:32;;;;;;;9.07;5.53;;;17.10;99.90;;;;;;5013032;28;20026;-54
2022/10/17 03:09:18;;;;;;;6.15;5.30;;;17.20;99.90;;;;;;5013387;28;20092;-48
2022/10/17 03:12:04;;;;;;;7.90;6.28;;;17.10;99.90;;;;;;4998925;28;20065;-50
2022/10/17 03:14:50;;;;;;;7.57;5.18;;;17.10;99.90;;;;;;5013462;28;20165;-50
2022/10/17 03:17:37;;;;;;;6.25;5.32;;;17.10;99.90;;;;;;4997719;28;20029;-51
2022/10/17 03:20:22;;;;;;;7.88;5.65;;;17.10;99.90;;;;;;5012591;28;20117;-51
2022/10/17 03:23:08;;;;;;;7.70;5.32;;;17.20;99.90;;;;;;5012663;28;20379;-51
2022/10/17 03:25:54;;;;;;;7.50;5.85;;;17.20;99.90;;;;;;5012934;28;20387;-52
2022/10/17 03:28:40;;;;;;;6.18;5.45;;;17.20;99.90;;;;;;5000435;28;20524;-51
2022/10/17 03:31:26;;;;;;;6.05;5.35;;;17.20;99.90;;;;;;4998273;28;20105;-50
2022/10/17 03:34:12;;;;;;;7.18;5.35;;;17.10;99.90;;;;;;4998547;28;20026;-52
2022/10/17 03:36:58;;;;;;;10.73;6.00;;;17.00;99.90;;;;;;5012078;28;20045;-55
2022/10/17 03:39:44;;;;;;;7.75;5.60;;;17.10;99.90;;;;;;5012656;28;20030;-54
2022/10/17 03:42:30;;;;;;;6.68;5.03;;;17.00;99.90;;;;;;5002214;28;20035;-57
2022/10/17 03:45:16;;;;;;;7.80;5.75;;;17.00;99.90;;;;;;4993019;28;20022;-52
2022/10/17 03:48:02;;;;;;;6.93;5.47;;;17.10;99.90;;;;;;5009647;28;20038;-56
2022/10/17 03:50:48;;;;;;;6.10;5.50;;;17.00;99.90;;;;;;4998192;28;20026;-52
2022/10/17 03:53:35;;;;;;;6.30;5.45;;;17.00;99.90;;;;;;5011419;28;20033;-52
2022/10/17 03:56:23;;;;;;;9.88;6.40;;;17.00;99.90;;;;;;5012134;28;20061;-54
2022/10/17 03:59:13;;;;;;;7.43;5.53;;;17.00;99.90;;;;;;5012339;28;20018;-52
2022/10/17 04:01:59;;;;;;;9.40;7.00;;;17.00;99.90;;;;;;4992000;28;20506;-50
2022/10/17 04:04:46;;;;;;;11.23;8.05;;;17.00;99.90;;;;;;4998245;28;20594;-56
2022/10/17 04:07:32;;;;;;;8.05;7.25;;;16.90;99.90;;;;;;5012453;28;20608;-53
2022/10/17 04:10:18;;;;;;;7.78;6.18;;;16.90;99.90;;;;;;5012121;28;20030;-56
2022/10/17 04:13:05;;;;;;;7.07;6.25;;;16.90;99.90;;;;;;5012101;28;20084;-55
2022/10/17 04:16:02;;;;;;;9.35;6.35;;;16.90;99.90;;;;;;5011783;28;20072;-51
2022/10/17 04:18:54;;;;;;;7.63;5.82;;;16.90;99.90;;;;;;5012374;28;20030;-57
2022/10/17 04:21:40;;;;;;;8.13;6.22;;;17.00;99.90;;;;;;5012063;28;20128;-53
2022/10/17 04:24:26;;;;;;;9.27;6.38;;;17.00;99.90;;;;;;5012473;28;20453;-51
2022/10/17 04:27:12;;;;;;;9.13;6.95;;;16.80;99.90;;;;;;4991949;28;20650;-55
2022/10/17 04:29:58;;;;;;;9.57;6.35;;;16.80;99.90;;;;;;5006880;28;20125;-53
2022/10/17 04:32:44;;;;;;;6.85;5.55;;;16.70;99.90;;;;;;5017460;28;20100;-51
2022/10/17 04:35:30;;;;;;;10.82;7.40;;;16.60;99.90;;;;;;5012192;28;20038;-52
2022/10/17 04:38:16;;;;;;;9.68;7.22;;;16.60;99.90;;;;;;5011712;28;20494;-50
2022/10/17 04:41:05;;;;;;;8.85;6.50;;;16.60;99.90;;;;;;4991516;28;20044;-56
2022/10/17 04:43:50;;;;;;;6.53;5.90;;;16.60;99.90;;;;;;4976823;28;20041;-49
2022/10/17 04:46:36;;;;;;;8.18;6.57;;;16.50;99.90;;;;;;4994152;28;20033;-50
2022/10/17 04:49:22;;;;;;;7.72;6.63;;;16.50;99.90;;;;;;5011362;28;20029;-52
2022/10/17 04:52:08;;;;;;;7.80;6.22;;;16.50;99.90;;;;;;5010462;28;20040;-54
2022/10/17 04:54:54;;;;;;;6.78;5.80;;;16.40;99.90;;;;;;5011709;28;20072;-56
2022/10/17 04:57:40;;;;;;;11.07;6.25;;;16.30;99.90;;;;;;4997478;28;20038;-55
2022/10/17 05:00:26;;;;;;;7.40;6.13;;;16.20;99.90;;;;;;5011501;28;20029;-55
2022/10/17 05:03:13;;;;;;;7.50;6.28;;;16.10;99.90;;;;;;5011669;28;20537;-58
2022/10/17 05:06:28;;;;;;;8.48;7.35;;;16.10;99.90;;;;;;5011495;28;20041;-56
2022/10/17 05:09:14;;;;;;;10.65;6.95;;;16.10;99.90;;;;;;5011720;28;20030;-58
2022/10/17 05:12:00;;;;;;;7.32;6.60;;;16.10;99.90;;;;;;5011475;28;20044;-60
2022/10/17 05:14:46;;;;;;;8.27;6.18;;;16.10;99.90;;;;;;5001333;28;20069;-59
2022/10/17 05:17:32;;;;;;;8.25;6.88;;;16.00;99.90;;;;;;4991479;28;20046;-57
2022/10/17 05:20:18;;;;;;;7.97;6.68;;;16.00;99.90;;;;;;4992152;28;20113;-58
2022/10/17 05:23:04;;;;;;;7.47;6.68;;;15.90;99.90;;;;;;4977547;28;20165;-58
2022/10/17 05:25:54;;;;;;;10.98;7.00;;;15.90;99.90;;;;;;4982020;28;20056;-55
2022/10/17 05:28:40;;;;;;;7.38;6.68;;;15.90;99.90;;;;;;5011484;28;20056;-59
2022/10/17 05:31:26;;;;;;;8.95;6.63;;;15.90;99.90;;;;;;4996234;28;20073;-58
2022/10/17 05:34:12;;;;;;;7.55;6.75;;;15.90;99.90;;;;;;5011284;28;20113;-55
2022/10/17 05:36:58;;;;;;;9.35;6.80;;;15.90;99.90;;;;;;4996856;28;20041;-56
2022/10/17 05:39:44;;;;;;;9.18;7.85;;;15.90;99.90;;;;;;5010422;28;20521;-56
2022/10/17 05:42:30;;;;;;;10.25;9.02;;;15.90;99.90;;;;;;4996518;28;20033;-60
2022/10/17 05:45:16;;;;;;;14.30;12.00;;;15.90;99.90;;;;;;5010950;28;20030;-59
2022/10/17 05:48:02;;;;;;;13.15;10.63;;;15.90;99.90;;;;;;5009836;28;20038;-56
2022/10/17 05:50:48;;;;;;;9.63;7.53;;;15.90;99.90;;;;;;4995812;28;20034;-58
2022/10/17 05:53:36;;;;;;;14.20;7.70;;;16.00;99.90;;;;;;5010683;28;20060;-56
2022/10/17 05:56:22;;;;;;;10.07;7.65;;;16.00;99.90;;;;;;5011050;28;20026;-58
2022/10/17 05:59:08;;;;;;;15.57;7.15;;;16.20;99.90;;;;;;4991121;28;20117;-56
2022/10/17 06:01:54;;;;;;;15.10;7.97;;;16.30;99.90;;;;;;4992931;28;20023;-58
2022/10/17 06:04:44;;;;;;;11.23;6.93;;;16.40;99.90;;;;;;5010839;28;20045;-59
2022/10/17 06:07:30;;;;;;;18.90;8.25;;;16.50;99.90;;;;;;5010623;28;20085;-58
2022/10/17 06:10:17;;;;;;;10.80;6.70;;;16.60;99.90;;;;;;5010300;28;20026;-57
2022/10/17 06:13:03;;;;;;;11.70;6.68;;;16.60;99.90;;;;;;5009530;28;20033;-58
2022/10/17 06:15:49;;;;;;;9.45;6.55;;;16.70;99.90;;;;;;5017692;28;20033;-58
2022/10/17 06:18:35;;;;;;;8.70;7.05;;;16.80;99.90;;;;;;5026472;28;20041;-54
2022/10/17 06:21:24;;;;;;;11.88;7.47;;;16.80;99.90;;;;;;5009924;28;20054;-58
2022/10/17 06:24:10;;;;;;;12.60;9.23;;;16.90;99.90;;;;;;5011284;28;20355;-57
2022/10/17 06:26:56;;;;;;;17.45;10.57;;;16.90;99.90;;;;;;5011065;28;20038;-58
2022/10/17 06:29:42;;;;;;;20.17;11.63;;;16.90;99.90;;;;;;5025974;28;20433;-56
2022/10/17 06:32:28;;;;;;;10.45;7.45;;;17.00;99.90;;;;;;5022510;28;20037;-59
2022/10/17 06:35:14;;;;;;;12.30;7.30;;;17.10;99.90;;;;;;5027709;28;20022;-58
2022/10/17 06:38:00;;;;;;;10.90;6.70;;;17.10;99.90;;;;;;5025702;28;20036;-58
2022/10/17 06:40:46;;;;;;;16.90;7.22;;;17.20;99.90;;;;;;5025410;28;20030;-52
2022/10/17 06:43:32;;;;;;;7.50;6.47;;;17.20;99.90;;;;;;5025242;28;20038;-57
2022/10/17 06:46:18;;;;;;;7.80;6.75;;;17.20;99.90;;;;;;5018503;28;20040;-57
2022/10/17 06:49:05;;;;;;;13.93;8.80;;;17.30;99.90;;;;;;5015933;28;20498;-56
2022/10/17 06:51:51;;;;;;;10.38;7.38;;;17.40;99.90;;;;;;5023482;28;20125;-59
2022/10/17 06:54:37;;;;;;;15.93;10.55;;;17.50;99.90;;;;;;5010290;28;20034;-53
2022/10/17 06:57:23;;;;;;;17.70;10.30;;;17.60;99.90;;;;;;5022183;28;20041;-55
2022/10/17 07:00:10;;;;;;;13.50;8.05;;;17.60;99.90;;;;;;5019200;28;20172;-57
2022/10/17 07:02:56;;;;;;;11.27;6.43;;;17.80;99.90;;;;;;5022742;28;20034;-53
2022/10/17 07:05:49;;;;;;;14.80;7.20;;;17.80;99.90;;;;;;5009237;28;20103;-56
2022/10/17 07:08:36;;;;;;;12.10;7.25;;;17.90;99.90;;;;;;5023496;28;20061;-59
2022/10/17 07:11:22;;;;;;;12.10;7.30;;;18.00;99.90;;;;;;5004823;28;20042;-57
2022/10/17 07:14:08;;;;;;;11.27;6.45;;;18.00;99.90;;;;;;4993403;28;20034;-59
2022/10/17 07:16:55;;;;;;;9.13;6.43;;;18.10;99.90;;;;;;5000700;28;20029;-57
2022/10/17 07:19:42;;;;;;;12.10;6.63;;;18.10;99.90;;;;;;4993338;28;20093;-58
2022/10/17 07:22:28;;;;;;;8.70;6.57;;;18.20;99.90;;;;;;4990276;28;20040;-58
2022/10/17 07:25:14;;;;;;;16.83;11.18;;;18.30;99.90;;;;;;4998958;28;20038;-58
2022/10/17 07:28:01;;;;;;;11.10;7.10;;;18.30;99.90;;;;;;4997928;28;20565;-56
2022/10/17 07:30:46;;;;;;;14.90;6.63;;;18.40;99.90;;;;;;4998086;28;20041;-59
2022/10/17 07:33:33;;;;;;;12.88;6.80;;;18.50;99.90;;;;;;5012034;28;20063;-58
2022/10/17 07:36:19;;;;;;;13.00;7.63;;;18.50;99.90;;;;;;5012613;28;20036;-58
2022/10/17 07:39:05;;;;;;;17.48;7.60;;;18.50;99.90;;;;;;4996294;28;20782;-59
2022/10/17 07:41:51;;;;;;;10.32;7.50;;;18.60;99.90;;;;;;5012475;28;20038;-59
2022/10/17 07:44:37;;;;;;;7.38;6.18;;;18.60;99.90;;;;;;5013040;28;20033;-59
2022/10/17 07:47:23;;;;;;;10.20;5.45;;;18.60;99.90;;;;;;5012782;28;20410;-61
2022/10/17 07:50:09;;;;;;;9.45;5.60;;;18.60;99.90;;;;;;5010981;28;20038;-59
2022/10/17 07:53:05;;;;;;;11.00;6.00;;;18.70;99.90;;;;;;5013343;28;20478;-60
2022/10/17 07:55:51;;;;;;;12.52;5.70;;;18.70;99.90;;;;;;4999980;28;20169;-58
2022/10/17 07:58:37;;;;;;;11.65;6.13;;;18.70;99.90;;;;;;4984795;28;20414;-57
2022/10/17 08:01:27;;;;;;;11.23;5.85;;;18.70;99.90;;;;;;4998672;28;20044;-63
2022/10/17 08:04:16;;;;;;;13.20;5.53;;;18.80;99.90;;;;;;5000123;28;20038;-60
2022/10/17 08:07:02;;;;;;;7.22;5.38;;;18.90;99.90;;;;;;4986063;28;20126;-57
2022/10/17 08:09:48;;;;;;;13.05;5.85;;;19.00;99.90;;;;;;5007826;28;20494;-58
2022/10/17 08:12:34;;;;;;;8.68;5.60;;;19.20;99.90;;;;;;5014479;28;20034;-58
2022/10/17 08:15:20;;;;;;;10.70;6.03;;;19.20;99.90;;;;;;4999328;28;20057;-57
2022/10/17 08:18:06;;;;;;;7.90;5.55;;;19.40;99.90;;;;;;5013420;28;20517;-59
2022/10/17 08:20:52;;;;;;;9.88;6.65;;;19.50;99.90;;;;;;5011430;28;20534;-59
2022/10/17 08:23:39;;;;;;;8.05;5.32;;;19.40;99.90;;;;;;5014039;28;20030;-57
2022/10/17 08:26:25;;;;;;;7.88;5.18;;;19.40;99.90;;;;;;5012664;28;20026;-57
2022/10/17 08:29:15;;;;;;;12.23;5.35;;;19.50;99.90;;;;;;4996915;28;20026;-57
2022/10/17 08:32:01;;;;;;;7.82;6.20;;;19.60;99.90;;;;;;4996617;28;20026;-59
2022/10/17 08:34:47;;;;;;;8.85;6.18;;;19.70;99.90;;;;;;5011986;28;20026;-57
2022/10/17 08:37:33;;;;;;;18.30;9.02;;;19.80;99.90;;;;;;5011165;28;20038;-59
2022/10/17 08:40:32;;;;;;;11.85;7.03;;;19.90;99.90;;;;;;5010689;28;20466;-55
2022/10/17 08:43:41;;;;;;;11.80;5.53;;;20.00;99.90;;;;;;4997614;28;20030;-57
2022/10/17 08:46:34;;;;;;;12.15;6.43;;;20.00;99.90;;;;;;5011676;28;20569;-58
2022/10/17 08:49:42;;;;;;;9.18;5.32;;;20.00;99.90;;;;;;5011229;28;20026;-56
2022/10/17 08:52:49;;;;;;;8.57;4.93;;;20.00;99.90;;;;;;5010308;28;20709;-58
2022/10/17 08:55:38;;;;;;;8.10;5.20;;;20.10;99.90;;;;;;5011855;28;20157;-59
2022/10/17 08:58:28;;;;;;;6.82;5.00;;;20.20;99.90;;;;;;5010683;28;20076;-55
2022/10/17 09:01:21;;;;;;;5.57;4.63;;;20.30;99.90;;;;;;5010194;28;20026;-54
2022/10/17 09:04:32;;;;;;;6.70;5.05;;;20.30;99.90;;;;;;5010591;28;20072;-57
2022/10/17 09:07:53;;;;;;;10.68;4.72;;;20.40;99.90;;;;;;5010746;28;20029;-59
2022/10/17 09:10:57;;;;;;;11.50;4.45;;;20.50;99.90;;;;;;5006033;28;20109;-55
2022/10/17 09:14:09;;;;;;;5.03;4.53;;;20.70;99.90;;;;;;5010899;28;20121;-53
2022/10/17 09:17:16;;;;;;;7.57;5.97;;;20.80;99.80;;;;;;4996685;28;20093;-55
2022/10/17 09:20:19;;;;;;;6.38;4.30;;;20.90;99.50;;;;;;5010945;28;20387;-56
2022/10/17 09:23:22;;;;;;;15.38;6.50;;;21.00;99.40;;;;;;5010208;28;20057;-57
2022/10/17 09:26:11;;;;;;;8.60;5.03;;;21.20;99.10;;;;;;5010747;28;20022;-59
2022/10/17 09:28:59;;;;;;;7.82;4.90;;;21.40;98.80;;;;;;5011421;28;20406;-55
2022/10/17 09:31:59;;;;;;;9.15;5.45;;;21.50;98.70;;;;;;5010426;28;20040;-53
2022/10/17 09:34:45;;;;;;;8.45;4.60;;;21.70;98.40;;;;;;5010665;28;20028;-50
2022/10/17 09:37:32;;;;;;;5.28;4.43;;;21.70;97.90;;;;;;5010306;28;20033;-52
2022/10/17 09:40:30;;;;;;;9.13;4.75;;;21.80;97.60;;;;;;5011078;28;20030;-58
2022/10/17 09:43:16;;;;;;;8.13;4.65;;;21.70;97.70;;;;;;5010510;28;20460;-56
2022/10/17 09:46:19;;;;;;;10.45;4.80;;;21.60;97.50;;;;;;5010879;28;20030;-55
2022/10/17 09:49:17;;;;;;;11.95;4.80;;;21.80;97.30;;;;;;5011069;28;20085;-53
2022/10/17 09:52:09;;;;;;;10.63;4.90;;;22.00;97.30;;;;;;5013727;28;20026;-50
2022/10/17 09:55:06;;;;;;;10.55;4.82;;;22.10;97.20;;;;;;5017580;28;20040;-55
2022/10/17 09:57:57;;;;;;;10.18;4.93;;;22.10;96.90;;;;;;5028546;28;20040;-54
2022/10/17 10:00:46;;;;;;;7.45;4.63;;;22.10;96.90;;;;;;5032968;28;20509;-57
2022/10/17 10:03:32;;;;;;;7.55;4.28;;;22.20;96.80;;;;;;5034389;28;20084;-55
2022/10/17 10:06:19;;;;;;;8.45;4.85;;;22.30;96.70;;;;;;5034154;28;20092;-54
2022/10/17 10:09:29;;;;;;;7.45;4.43;;;22.30;96.70;;;;;;5018936;28;20033;-56
2022/10/17 10:12:27;;;;;;;9.40;4.22;;;22.20;96.50;;;;;;5026163;28;20040;-57
2022/10/17 10:15:33;;;;;;;11.57;4.63;;;22.20;96.60;;;;;;5039804;28;20704;-61
2022/10/17 10:18:28;;;;;;;8.20;3.92;;;22.10;96.80;;;;;;5035908;28;20025;-59
2022/10/17 10:21:15;;;;;;;8.63;5.05;;;22.10;96.70;;;;;;5034156;28;20022;-56
2022/10/17 10:24:10;;;;;;;7.20;4.60;;;22.20;96.70;;;;;;5033623;28;20037;-57
2022/10/17 10:27:02;;;;;;;12.00;4.90;;;22.40;96.70;;;;;;5033513;28;20041;-58
2022/10/17 10:29:51;;;;;;;8.57;4.57;;;22.50;96.50;;;;;;5032934;28;20033;-55
2022/10/17 10:32:37;;;;;;;8.32;4.53;;;22.60;96.30;;;;;;5033236;28;20108;-57
2022/10/17 10:35:31;;;;;;;6.82;4.50;;;22.60;96.50;;;;;;5019208;28;20482;-56
2022/10/17 10:38:17;;;;;;;8.65;4.60;;;22.90;96.10;;;;;;5033081;28;20060;-57
2022/10/17 10:41:08;;;;;;;8.70;4.80;;;23.00;96.20;;;;;;5032295;28;20501;-58
2022/10/17 10:43:55;;;;;;;9.75;4.70;;;23.00;95.70;;;;;;5033045;28;20033;-58
2022/10/17 10:46:41;;;;;;;6.28;4.57;;;23.10;95.70;;;;;;5033565;28;20044;-54
2022/10/17 10:49:31;;;;;;;6.22;4.45;;;23.00;95.30;;;;;;5033449;28;20029;-53
2022/10/17 10:52:28;;;;;;;11.02;5.25;;;23.00;95.20;;;;;;5033882;28;20083;-54
2022/10/17 10:55:31;;;;;;;10.18;4.80;;;23.00;95.20;;;;;;5033261;28;20022;-55
2022/10/17 10:58:36;;;;;;;10.13;4.40;;;23.00;95.20;;;;;;5032883;28;20528;-54
2022/10/17 11:01:40;;;;;;;6.00;3.90;;;23.20;94.90;;;;;;5020975;28;20017;-55
2022/10/17 11:04:26;;;;;;;6.53;4.95;;;23.20;94.80;;;;;;5032847;28;20116;-57
2022/10/17 11:07:22;;;;;;;11.57;8.55;;;23.20;94.80;;;;;;5032636;28;20424;-56
2022/10/17 11:10:24;;;;;;;10.77;4.43;;;23.30;94.70;;;;;;5032623;28;20037;-55
2022/10/17 11:13:16;;;;;;;16.20;4.40;;;23.40;94.70;;;;;;5032557;28;20168;-56
2022/10/17 11:16:22;;;;;;;8.73;4.63;;;23.50;94.40;;;;;;5032695;28;20029;-59
2022/10/17 11:19:17;;;;;;;8.65;4.93;;;23.60;94.40;;;;;;5035560;28;20544;-60
2022/10/17 11:22:21;;;;;;;;;;;23.70;94.30;;;;;;5034165;28;20470;-54
2022/10/17 11:25:39;;;;;;;5.40;4.25;;;23.80;94.10;;;;;;5032523;28;20357;-55
2022/10/17 11:28:25;;;;;;;8.85;4.40;;;23.70;94.10;;;;;;5030984;28;20037;-55
2022/10/17 11:31:13;;;;;;;7.13;4.65;;;23.80;94.10;;;;;;5032148;28;20045;-56
2022/10/17 11:34:05;;;;;;;11.52;5.03;;;24.00;94.10;;;;;;5021035;28;20379;-56
2022/10/17 11:36:57;;;;;;;13.13;4.72;;;24.30;93.90;;;;;;5011852;28;20030;-53
2022/10/17 11:39:53;;;;;;;7.95;4.10;;;24.40;93.70;;;;;;5013331;28;20041;-58
2022/10/17 11:43:05;;;;;;;8.75;4.20;;;24.40;93.30;;;;;;4999040;28;20069;-56
2022/10/17 11:45:57;;;;;;;12.45;4.43;;;24.50;93.20;;;;;;5011797;28;20044;-55
2022/10/17 11:49:17;;;;;;;11.50;4.50;;;24.50;93.20;;;;;;5013228;28;20030;-57
2022/10/17 11:52:25;;;;;;;10.05;4.63;;;24.60;93.00;;;;;;5012665;28;20026;-61
2022/10/17 11:55:28;;;;;;;7.15;4.53;;;24.60;92.80;;;;;;5012444;28;20022;-55
2022/10/17 11:58:23;;;;;;;10.82;4.10;;;24.60;92.70;;;;;;5012657;28;20025;-56
2022/10/17 12:01:19;;;;;;;11.35;4.80;;;24.70;92.60;;;;;;5011766;28;20030;-55
2022/10/17 12:04:30;;;;;;;6.07;4.00;;;24.80;92.60;;;;;;5012552;28;20406;-58
2022/10/17 12:07:39;;;;;;;5.80;4.22;;;24.80;92.20;;;;;;5012383;28;20053;-54
2022/10/17 12:10:46;;;;;;;8.63;4.53;;;24.90;91.90;;;;;;5012380;28;20137;-59
2022/10/17 12:13:32;;;;;;;12.25;4.35;;;25.00;91.50;;;;;;5011501;28;20525;-59
2022/10/17 12:16:18;;;;;;;8.15;4.03;;;25.00;91.40;;;;;;5012828;28;20022;-60
2022/10/17 12:19:18;;;;;;;10.40;4.10;;;25.10;91.40;;;;;;5011288;28;20045;-57
2022/10/17 12:22:24;;;;;;;14.60;3.90;;;25.10;91.10;;;;;;5011404;28;20117;-58
2022/10/17 12:25:20;;;;;;;5.45;3.90;;;25.20;90.40;;;;;;5011982;28;20414;-58
2022/10/17 12:28:05;;;;;;;5.82;3.22;;;25.40;90.00;;;;;;5011282;28;20085;-54
2022/10/17 12:31:14;;;;;;;7.95;4.00;;;25.60;89.50;;;;;;5011221;28;20022;-56
2022/10/17 12:34:02;;;;;;;5.80;4.00;;;25.60;88.80;;;;;;5011057;28;20034;-56
2022/10/17 12:36:48;;;;;;;6.72;3.65;;;25.80;88.40;;;;;;5011436;28;20022;-55
2022/10/17 12:39:37;;;;;;;11.93;3.97;;;25.90;87.70;;;;;;5011592;28;20025;-60
2022/10/17 12:42:47;;;;;;;16.35;4.22;;;26.10;86.20;;;;;;5011209;28;20029;-58
2022/10/17 12:45:55;;;;;;;7.57;3.95;;;25.90;85.50;;;;;;5012865;28;20032;-54
2022/10/17 12:48:41;;;;;;;8.43;3.33;;;25.90;85.70;;;;;;5011617;28;20022;-55
2022/10/17 12:51:28;;;;;;;7.05;3.58;;;26.00;85.40;;;;;;5011206;28;20516;-57
2022/10/17 12:54:15;;;;;;;8.98;4.25;;;26.10;85.50;;;;;;5011823;28;20121;-54
2022/10/17 12:57:01;;;;;;;8.70;3.80;;;26.30;85.40;;;;;;5011176;28;20034;-56
2022/10/17 12:59:47;;;;;;;8.45;3.85;;;26.50;84.00;;;;;;5011239;28;20157;-54
2022/10/17 13:02:34;;;;;;;9.82;4.05;;;26.40;83.50;;;;;;5011745;28;20030;-60
2022/10/17 13:05:30;;;;;;;5.68;3.70;;;26.40;83.20;;;;;;5011208;28;20034;-57
2022/10/17 13:08:28;;;;;;;6.80;3.97;;;26.50;83.30;;;;;;5011205;28;20061;-58
2022/10/17 13:11:15;;;;;;;9.05;3.63;;;26.50;82.60;;;;;;5010944;28;20065;-54
2022/10/17 13:14:03;;;;;;;8.10;3.30;;;26.40;82.50;;;;;;5019474;28;20120;-58
2022/10/17 13:16:58;;;;;;;5.10;3.25;;;26.50;82.00;;;;;;5020067;28;20026;-59
2022/10/17 13:19:45;;;;;;;4.97;3.60;;;26.50;81.60;;;;;;5011894;28;20018;-58
2022/10/17 13:22:31;;;;;;;5.13;3.70;;;26.70;81.70;;;;;;5011271;28;20062;-53
2022/10/17 13:25:19;;;;;;;5.65;3.53;;;26.80;81.20;;;;;;5010417;28;20495;-57
2022/10/17 13:28:11;;;;;;;6.63;3.60;;;26.80;80.80;;;;;;5009606;28;20034;-53
2022/10/17 13:30:57;;;;;;;8.60;3.63;;;26.90;80.60;;;;;;5011171;28;20084;-57
2022/10/17 13:33:43;;;;;;;6.15;3.60;;;27.00;80.40;;;;;;5012324;28;20026;-57
2022/10/17 13:36:31;;;;;;;5.78;3.70;;;27.30;80.20;;;;;;5011335;28;20037;-57
2022/10/17 13:39:20;;;;;;;5.63;3.75;;;27.20;80.40;;;;;;5011576;28;20033;-60
2022/10/17 13:42:23;;;;;;;10.05;3.80;;;27.10;80.30;;;;;;5009988;28;20026;-54
2022/10/17 13:45:30;;;;;;;7.55;3.80;;;27.00;80.40;;;;;;5010868;28;20037;-55
2022/10/17 13:48:24;;;;;;;6.78;3.58;;;27.00;80.00;;;;;;5011467;28;20126;-57
2022/10/17 13:51:11;;;;;;;8.52;3.47;;;26.80;80.60;;;;;;4997178;28;20117;-57
2022/10/17 13:53:57;;;;;;;5.65;3.33;;;26.40;81.50;;;;;;4983355;28;20036;-59
2022/10/17 13:56:43;;;;;;;6.68;3.70;;;26.30;82.10;;;;;;5010534;28;20069;-60
2022/10/17 13:59:36;;;;;;;10.32;3.70;;;26.20;82.20;;;;;;5011214;28;20026;-56
2022/10/17 14:02:26;;;;;;;7.28;3.92;;;26.40;82.60;;;;;;5010473;28;20054;-55
2022/10/17 14:05:15;;;;;;;7.22;4.15;;;26.30;82.60;;;;;;5010127;28;20064;-57
2022/10/17 14:08:03;;;;;;;5.95;3.75;;;26.40;82.50;;;;;;5009971;28;20419;-57
2022/10/17 14:10:50;;;;;;;7.70;3.83;;;26.50;82.50;;;;;;5010874;28;20073;-58
2022/10/17 14:13:35;;;;;;;6.07;3.47;;;26.50;82.40;;;;;;5011186;28;20053;-54
2022/10/17 14:16:23;;;;;;;9.38;3.90;;;26.50;82.60;;;;;;5011812;28;20046;-56
2022/10/17 14:19:24;;;;;;;7.15;3.90;;;26.40;82.80;;;;;;5011446;28;20222;-58
2022/10/17 14:22:24;;;;;;;10.93;3.58;;;26.60;82.00;;;;;;5010280;28;20617;-59
2022/10/17 14:25:30;;;;;;;7.50;3.72;;;26.80;81.80;;;;;;5010004;28;20036;-54
2022/10/17 14:28:17;;;;;;;8.63;3.80;;;27.10;80.30;;;;;;5009973;28;20117;-55
2022/10/17 14:31:13;;;;;;;6.13;3.65;;;27.40;80.10;;;;;;5010414;28;20038;-55
2022/10/17 14:34:00;;;;;;;8.20;3.97;;;28.00;79.00;;;;;;5010463;28;20026;-54
2022/10/17 14:36:50;;;;;;;4.65;3.28;;;28.00;78.60;;;;;;5010674;28;20541;-54
2022/10/17 14:39:36;;;;;;;7.68;3.55;;;27.90;78.50;;;;;;5012867;28;20026;-55
2022/10/17 14:42:22;;;;;;;5.20;3.47;;;28.10;78.00;;;;;;5014135;28;20030;-58
2022/10/17 14:45:13;;;;;;;9.93;3.90;;;28.30;77.30;;;;;;5012860;28;20069;-57
2022/10/17 14:48:13;;;;;;;7.57;3.75;;;27.90;77.90;;;;;;4998315;28;20049;-55